createdAt,value
2018-01-24T00:00:20.561Z,4.78
2018-01-24T00:01:20.576Z,4.9
2018-01-24T00:02:20.334Z,4.8
2018-01-24T00:03:20.351Z,4.89
2018-01-24T00:04:20.114Z,4.87
2018-01-24T00:05:20.634Z,4.87
2018-01-24T00:06:20.641Z,4.92
2018-01-24T00:07:20.655Z,5
2018-01-24T00:08:20.672Z,4.89
2018-01-24T00:09:20.682Z,4.9
2018-01-24T00:10:20.446Z,4.93
2018-01-24T00:11:20.711Z,4.99
2018-01-24T00:12:20.481Z,5.15
2018-01-24T00:13:20.237Z,5.17
2018-01-24T00:14:20.500Z,5.23
2018-01-24T00:15:20.522Z,5.23
2018-01-24T00:16:20.782Z,5.18
2018-01-24T00:17:20.543Z,5.26
2018-01-24T00:18:20.553Z,5.29
2018-01-24T00:19:20.821Z,5.1
2018-01-24T00:20:20.842Z,5.3
2018-01-24T00:21:20.595Z,5.21
2018-01-24T00:22:20.860Z,5.15
2018-01-24T00:23:20.370Z,5.18
2018-01-24T00:24:20.884Z,5.2
2018-01-24T00:25:20.902Z,5.18
2018-01-24T00:26:20.662Z,5.21
2018-01-24T00:27:20.925Z,5.21
2018-01-24T00:28:20.941Z,5.23
2018-01-24T00:29:20.713Z,5.14
2018-01-24T00:30:20.717Z,5.23
2018-01-24T00:31:20.975Z,5.32
2018-01-24T00:32:20.490Z,5.3
2018-01-24T00:33:20.755Z,5.28
2018-01-24T00:34:20.771Z,5.28
2018-01-24T00:35:20.533Z,5.26
2018-01-24T00:36:20.799Z,5.33
2018-01-24T00:37:20.829Z,5.33
2018-01-24T00:38:21.076Z,5.47
2018-01-24T00:39:21.086Z,5.46
2018-01-24T00:40:21.103Z,5.44
2018-01-24T00:41:20.864Z,5.43
2018-01-24T00:42:21.133Z,5.3
2018-01-24T00:43:21.150Z,5.18
2018-01-24T00:44:21.163Z,5.11
2018-01-24T00:45:20.671Z,5.08
2018-01-24T00:46:20.937Z,5.14
2018-01-24T00:47:20.945Z,5.05
2018-01-24T00:48:20.715Z,4.97
2018-01-24T00:49:20.723Z,4.87
2018-01-24T00:50:20.749Z,5.1
2018-01-24T00:51:20.997Z,5.05
2018-01-24T00:52:21.016Z,5.1
2018-01-24T00:53:21.278Z,5.05
2018-01-24T00:54:21.041Z,5
2018-01-24T00:55:21.054Z,5.05
2018-01-24T00:56:21.317Z,5.12
2018-01-24T00:57:21.334Z,5.2
2018-01-24T00:58:21.094Z,5.26
2018-01-24T00:59:21.362Z,5.26
2018-01-24T01:00:21.126Z,5.32
2018-01-24T01:01:20.888Z,5.41
2018-01-24T01:02:21.401Z,5.32
2018-01-24T01:03:21.165Z,5.33
2018-01-24T01:04:21.181Z,5.39
2018-01-24T01:05:21.193Z,5.41
2018-01-24T01:06:21.205Z,5.39
2018-01-24T01:07:21.482Z,5.41
2018-01-24T01:08:21.491Z,5.18
2018-01-24T01:09:20.997Z,5.18
2018-01-24T01:10:21.264Z,5.29
2018-01-24T01:11:21.534Z,5.3
2018-01-24T01:12:21.290Z,5.33
2018-01-24T01:13:21.312Z,5.39
2018-01-24T01:14:21.067Z,5.32
2018-01-24T01:15:21.081Z,5.39
2018-01-24T01:16:21.595Z,5.43
2018-01-24T01:17:21.612Z,5.54
2018-01-24T01:18:21.377Z,5.46
2018-01-24T01:19:21.388Z,5.39
2018-01-24T01:20:21.400Z,5.3
2018-01-24T01:21:21.707Z,5.38
2018-01-24T01:22:21.176Z,5.38
2018-01-24T01:23:21.441Z,5.47
2018-01-24T01:24:21.211Z,5.47
2018-01-24T01:25:21.474Z,5.59
2018-01-24T01:26:21.481Z,5.65
2018-01-24T01:27:21.757Z,5.65
2018-01-24T01:28:21.514Z,5.64
2018-01-24T01:29:21.776Z,5.62
2018-01-24T01:30:21.543Z,5.64
2018-01-24T01:31:21.807Z,5.71
2018-01-24T01:32:21.597Z,5.61
2018-01-24T01:33:21.579Z,5.66
2018-01-24T01:34:21.607Z,5.72
2018-01-24T01:35:21.358Z,5.71
2018-01-24T01:36:21.371Z,5.72
2018-01-24T01:37:21.634Z,5.72
2018-01-24T01:38:21.902Z,5.68
2018-01-24T01:39:21.673Z,5.66
2018-01-24T01:40:21.675Z,5.71
2018-01-24T01:41:21.948Z,5.79
2018-01-24T01:42:21.704Z,5.79
2018-01-24T01:43:21.974Z,5.9
2018-01-24T01:44:21.739Z,5.9
2018-01-24T01:45:21.755Z,5.87
2018-01-24T01:46:21.769Z,5.86
2018-01-24T01:47:22.029Z,5.94
2018-01-24T01:48:22.043Z,5.86
2018-01-24T01:49:21.808Z,5.82
2018-01-24T01:50:22.074Z,5.8
2018-01-24T01:51:21.836Z,5.9
2018-01-24T01:52:21.850Z,5.98
2018-01-24T01:53:21.615Z,5.8
2018-01-24T01:54:22.135Z,5.83
2018-01-24T01:55:21.890Z,5.89
2018-01-24T01:56:22.170Z,5.75
2018-01-24T01:57:21.919Z,5.91
2018-01-24T01:58:21.939Z,5.84
2018-01-24T01:59:22.205Z,5.89
2018-01-24T02:00:21.711Z,5.9
2018-01-24T02:01:21.979Z,5.86
2018-01-24T02:02:21.991Z,5.97
2018-01-24T02:03:22.008Z,5.84
2018-01-24T02:04:22.270Z,6.05
2018-01-24T02:05:22.034Z,5.87
2018-01-24T02:06:22.053Z,5.89
2018-01-24T02:07:22.318Z,5.9
2018-01-24T02:08:22.100Z,5.91
2018-01-24T02:09:22.096Z,5.91
2018-01-24T02:10:22.104Z,5.97
2018-01-24T02:11:22.369Z,5.93
2018-01-24T02:12:22.388Z,5.93
2018-01-24T02:13:22.148Z,5.99
2018-01-24T02:14:22.413Z,5.91
2018-01-24T02:15:22.175Z,5.97
2018-01-24T02:16:22.190Z,6.05
2018-01-24T02:17:22.202Z,6.04
2018-01-24T02:18:22.475Z,6.07
2018-01-24T02:19:22.231Z,6.01
2018-01-24T02:20:22.247Z,6.04
2018-01-24T02:21:22.511Z,5.99
2018-01-24T02:22:22.284Z,6.04
2018-01-24T02:23:22.297Z,6.09
2018-01-24T02:24:22.303Z,6.12
2018-01-24T02:25:22.065Z,6.12
2018-01-24T02:26:22.583Z,6.08
2018-01-24T02:27:22.348Z,6.08
2018-01-24T02:28:22.361Z,6.14
2018-01-24T02:29:22.122Z,6.08
2018-01-24T02:30:22.146Z,6.08
2018-01-24T02:31:22.410Z,6.16
2018-01-24T02:32:22.674Z,6.09
2018-01-24T02:33:22.444Z,5.9
2018-01-24T02:34:22.450Z,5.97
2018-01-24T02:35:22.715Z,6.12
2018-01-24T02:36:22.535Z,6.11
2018-01-24T02:37:22.765Z,6.09
2018-01-24T02:38:22.509Z,6.22
2018-01-24T02:39:22.777Z,6.19
2018-01-24T02:40:22.287Z,6.2
2018-01-24T02:41:22.810Z,6.26
2018-01-24T02:42:22.819Z,6.24
2018-01-24T02:43:22.580Z,6.31
2018-01-24T02:44:22.843Z,6.39
2018-01-24T02:45:22.864Z,6.42
2018-01-24T02:46:22.625Z,6.36
2018-01-24T02:47:22.888Z,6.44
2018-01-24T02:48:22.908Z,6.28
2018-01-24T02:49:22.664Z,6.39
2018-01-24T02:50:22.928Z,6.38
2018-01-24T02:51:22.701Z,6.44
2018-01-24T02:52:22.956Z,6.45
2018-01-24T02:53:22.722Z,6.26
2018-01-24T02:54:22.748Z,6.36
2018-01-24T02:55:23.001Z,6.49
2018-01-24T02:56:22.771Z,6.52
2018-01-24T02:57:22.779Z,6.6
2018-01-24T02:58:22.799Z,6.51
2018-01-24T02:59:23.107Z,6.46
2018-01-24T03:00:22.825Z,6.54
2018-01-24T03:01:22.842Z,6.56
2018-01-24T03:02:23.105Z,6.52
2018-01-24T03:03:23.120Z,6.52
2018-01-24T03:04:22.630Z,6.62
2018-01-24T03:05:22.644Z,6.62
2018-01-24T03:06:22.929Z,6.77
2018-01-24T03:07:22.931Z,6.75
2018-01-24T03:08:22.944Z,6.78
2018-01-24T03:09:22.959Z,6.52
2018-01-24T03:10:23.224Z,6.72
2018-01-24T03:11:22.991Z,6.87
2018-01-24T03:12:23.251Z,6.87
2018-01-24T03:13:23.014Z,6.87
2018-01-24T03:14:23.043Z,6.96
2018-01-24T03:15:22.791Z,6.97
2018-01-24T03:16:22.804Z,7.05
2018-01-24T03:17:23.072Z,7.06
2018-01-24T03:18:23.362Z,6.93
2018-01-24T03:19:23.106Z,6.82
2018-01-24T03:20:23.122Z,6.87
2018-01-24T03:21:23.386Z,6.88
2018-01-24T03:22:23.402Z,7.03
2018-01-24T03:23:23.166Z,6.96
2018-01-24T03:24:23.181Z,7.05
2018-01-24T03:25:23.449Z,7.14
2018-01-24T03:26:23.207Z,7.1
2018-01-24T03:27:23.225Z,7.14
2018-01-24T03:28:23.491Z,7.23
2018-01-24T03:29:23.506Z,7.28
2018-01-24T03:30:23.543Z,7.28
2018-01-24T03:31:23.295Z,7.28
2018-01-24T03:32:23.304Z,7.25
2018-01-24T03:33:23.357Z,7.31
2018-01-24T03:34:23.329Z,7.4
2018-01-24T03:35:23.350Z,7.36
2018-01-24T03:36:23.360Z,7.42
2018-01-24T03:37:23.373Z,7.45
2018-01-24T03:38:23.703Z,7.42
2018-01-24T03:39:23.154Z,7.45
2018-01-24T03:40:23.425Z,7.43
2018-01-24T03:41:23.433Z,7.51
2018-01-24T03:42:23.198Z,7.56
2018-01-24T03:43:23.469Z,7.38
2018-01-24T03:44:23.527Z,7.54
2018-01-24T03:45:23.516Z,7.53
2018-01-24T03:46:23.519Z,7.42
2018-01-24T03:47:23.780Z,7.42
2018-01-24T03:48:23.290Z,7.5
2018-01-24T03:49:23.559Z,7.6
2018-01-24T03:50:23.581Z,7.5
2018-01-24T03:51:23.587Z,7.45
2018-01-24T03:52:23.859Z,7.4
2018-01-24T03:53:23.629Z,7.48
2018-01-24T03:54:23.382Z,7.39
2018-01-24T03:55:23.400Z,7.42
2018-01-24T03:56:23.663Z,7.47
2018-01-24T03:57:23.699Z,7.53
2018-01-24T03:58:23.703Z,7.45
2018-01-24T03:59:23.714Z,7.39
2018-01-24T04:00:23.985Z,7.35
2018-01-24T04:01:23.993Z,7.39
2018-01-24T04:02:23.758Z,7.2
2018-01-24T04:03:23.552Z,7.24
2018-01-24T04:04:23.865Z,7.15
2018-01-24T04:05:24.098Z,7.28
2018-01-24T04:06:23.569Z,7.25
2018-01-24T04:07:23.835Z,7.24
2018-01-24T04:08:24.100Z,7.07
2018-01-24T04:09:24.128Z,7.14
2018-01-24T04:10:24.129Z,7.1
2018-01-24T04:11:23.642Z,7.1
2018-01-24T04:12:23.913Z,7.1
2018-01-24T04:13:23.920Z,7.15
2018-01-24T04:14:23.937Z,7.11
2018-01-24T04:15:23.952Z,7.02
2018-01-24T04:16:23.968Z,7.13
2018-01-24T04:17:24.250Z,7.13
2018-01-24T04:18:24.250Z,7.06
2018-01-24T04:19:24.016Z,7.03
2018-01-24T04:20:24.031Z,6.92
2018-01-24T04:21:24.392Z,6.88
2018-01-24T04:22:24.062Z,6.89
2018-01-24T04:23:24.071Z,6.93
2018-01-24T04:24:23.836Z,6.85
2018-01-24T04:25:24.104Z,6.88
2018-01-24T04:26:24.119Z,6.88
2018-01-24T04:27:24.385Z,6.89
2018-01-24T04:28:24.403Z,6.89
2018-01-24T04:29:24.173Z,6.85
2018-01-24T04:30:24.180Z,6.75
2018-01-24T04:31:24.454Z,6.78
2018-01-24T04:32:24.237Z,6.88
2018-01-24T04:33:24.244Z,6.84
2018-01-24T04:34:24.495Z,6.78
2018-01-24T04:35:24.254Z,6.69
2018-01-24T04:36:24.371Z,6.78
2018-01-24T04:37:24.288Z,6.82
2018-01-24T04:38:24.048Z,6.77
2018-01-24T04:39:24.566Z,6.75
2018-01-24T04:40:24.580Z,6.75
2018-01-24T04:41:24.105Z,6.72
2018-01-24T04:42:24.613Z,6.66
2018-01-24T04:43:24.376Z,6.63
2018-01-24T04:44:24.399Z,6.66
2018-01-24T04:45:24.657Z,6.63
2018-01-24T04:46:24.167Z,6.67
2018-01-24T04:47:24.434Z,6.67
2018-01-24T04:48:24.469Z,6.63
2018-01-24T04:49:24.465Z,6.52
2018-01-24T04:50:24.729Z,6.66
2018-01-24T04:51:24.493Z,6.66
2018-01-24T04:52:24.505Z,6.6
2018-01-24T04:53:24.524Z,6.64
2018-01-24T04:54:24.796Z,6.63
2018-01-24T04:55:24.802Z,6.54
2018-01-24T04:56:24.816Z,6.52
2018-01-24T04:57:24.585Z,6.49
2018-01-24T04:58:24.597Z,6.46
2018-01-24T04:59:24.612Z,6.54
2018-01-24T05:00:24.896Z,6.51
2018-01-24T05:01:24.893Z,6.51
2018-01-24T05:02:24.913Z,6.67
2018-01-24T05:03:24.919Z,6.67
2018-01-24T05:04:24.686Z,6.56
2018-01-24T05:05:24.454Z,6.6
2018-01-24T05:06:24.464Z,6.69
2018-01-24T05:07:24.728Z,6.74
2018-01-24T05:08:24.742Z,6.74
2018-01-24T05:09:24.757Z,6.77
2018-01-24T05:10:25.025Z,6.78
2018-01-24T05:11:25.042Z,6.81
2018-01-24T05:12:24.803Z,6.75
2018-01-24T05:13:25.073Z,6.87
2018-01-24T05:14:24.837Z,6.81
2018-01-24T05:15:24.598Z,6.87
2018-01-24T05:16:24.866Z,6.82
2018-01-24T05:17:24.890Z,6.77
2018-01-24T05:18:25.145Z,6.85
2018-01-24T05:19:24.910Z,6.96
2018-01-24T05:20:25.183Z,6.85
2018-01-24T05:21:24.939Z,6.85
2018-01-24T05:22:25.212Z,6.92
2018-01-24T05:23:24.968Z,7.02
2018-01-24T05:24:24.992Z,7.06
2018-01-24T05:25:25.268Z,7.11
2018-01-24T05:26:25.023Z,7.06
2018-01-24T05:27:25.031Z,7
2018-01-24T05:28:25.050Z,7.07
2018-01-24T05:29:25.072Z,7.13
2018-01-24T05:30:25.077Z,7.28
2018-01-24T05:31:25.096Z,7.21
2018-01-24T05:32:25.359Z,7.21
2018-01-24T05:33:25.374Z,7.29
2018-01-24T05:34:25.395Z,7.23
2018-01-24T05:35:25.409Z,7.33
2018-01-24T05:36:25.421Z,7.18
2018-01-24T05:37:25.445Z,7.29
2018-01-24T05:38:25.212Z,7.36
2018-01-24T05:39:25.469Z,7.4
2018-01-24T05:40:24.989Z,7.32
2018-01-24T05:41:25.246Z,7.29
2018-01-24T05:42:25.514Z,7.32
2018-01-24T05:43:25.533Z,7.33
2018-01-24T05:44:25.288Z,7.2
2018-01-24T05:45:25.561Z,7.35
2018-01-24T05:46:25.073Z,7.32
2018-01-24T05:47:25.101Z,7.35
2018-01-24T05:48:25.599Z,7.4
2018-01-24T05:49:25.614Z,7.35
2018-01-24T05:50:25.379Z,7.33
2018-01-24T05:51:25.401Z,7.36
2018-01-24T05:52:25.162Z,7.42
2018-01-24T05:53:25.433Z,7.42
2018-01-24T05:54:25.443Z,7.32
2018-01-24T05:55:25.709Z,7.35
2018-01-24T05:56:25.237Z,7.36
2018-01-24T05:57:25.491Z,7.38
2018-01-24T05:58:25.502Z,7.32
2018-01-24T05:59:25.772Z,7.17
2018-01-24T06:00:25.785Z,7.28
2018-01-24T06:01:25.549Z,7.35
2018-01-24T06:02:25.816Z,7.4
2018-01-24T06:03:25.853Z,7.42
2018-01-24T06:04:25.884Z,7.4
2018-01-24T06:05:25.609Z,7.43
2018-01-24T06:06:25.629Z,7.43
2018-01-24T06:07:25.895Z,7.31
2018-01-24T06:08:25.408Z,7.33
2018-01-24T06:09:25.924Z,7.4
2018-01-24T06:10:25.687Z,7.32
2018-01-24T06:11:25.713Z,7.38
2018-01-24T06:12:25.974Z,7.4
2018-01-24T06:13:25.984Z,7.4
2018-01-24T06:14:25.752Z,7.38
2018-01-24T06:15:25.528Z,7.38
2018-01-24T06:16:25.777Z,7.45
2018-01-24T06:17:25.796Z,7.42
2018-01-24T06:18:25.845Z,7.42
2018-01-24T06:19:26.080Z,7.48
2018-01-24T06:20:26.100Z,7.43
2018-01-24T06:21:25.866Z,7.4
2018-01-24T06:22:25.869Z,7.42
2018-01-24T06:23:25.890Z,7.43
2018-01-24T06:24:26.155Z,7.43
2018-01-24T06:25:25.924Z,7.47
2018-01-24T06:26:26.196Z,7.39
2018-01-24T06:27:25.951Z,7.43
2018-01-24T06:28:26.245Z,7.43
2018-01-24T06:29:26.234Z,7.43
2018-01-24T06:30:26.012Z,7.29
2018-01-24T06:31:26.013Z,7.4
2018-01-24T06:32:26.030Z,7.43
2018-01-24T06:33:26.296Z,7.42
2018-01-24T06:34:26.061Z,7.36
2018-01-24T06:35:26.081Z,7.31
2018-01-24T06:36:26.094Z,7.23
2018-01-24T06:37:26.108Z,6.99
2018-01-24T06:38:26.375Z,7.11
2018-01-24T06:39:26.136Z,7.06
2018-01-24T06:40:26.158Z,6.97
2018-01-24T06:41:26.167Z,7
2018-01-24T06:42:26.439Z,6.93
2018-01-24T06:43:26.201Z,6.99
2018-01-24T06:44:26.471Z,7.07
2018-01-24T06:45:26.484Z,7.13
2018-01-24T06:46:26.247Z,6.99
2018-01-24T06:47:26.264Z,6.95
2018-01-24T06:48:26.530Z,6.93
2018-01-24T06:49:26.295Z,6.87
2018-01-24T06:50:26.309Z,6.85
2018-01-24T06:51:26.627Z,6.82
2018-01-24T06:52:26.360Z,6.81
2018-01-24T06:53:26.353Z,6.92
2018-01-24T06:54:26.624Z,6.92
2018-01-24T06:55:26.133Z,6.81
2018-01-24T06:56:26.657Z,6.89
2018-01-24T06:57:26.423Z,6.92
2018-01-24T06:58:26.431Z,7.02
2018-01-24T06:59:26.707Z,7.03
2018-01-24T07:00:26.475Z,6.97
2018-01-24T07:01:26.737Z,6.97
2018-01-24T07:02:26.496Z,7
2018-01-24T07:03:26.508Z,7.11
2018-01-24T07:04:26.521Z,7.14
2018-01-24T07:05:26.539Z,7.14
2018-01-24T07:06:26.553Z,7.1
2018-01-24T07:07:26.318Z,7.1
2018-01-24T07:08:26.844Z,7.1
2018-01-24T07:09:26.599Z,7.24
2018-01-24T07:10:26.864Z,7.18
2018-01-24T07:11:26.626Z,7.11
2018-01-24T07:12:26.647Z,7.17
2018-01-24T07:13:26.912Z,7.14
2018-01-24T07:14:26.678Z,7.29
2018-01-24T07:15:26.462Z,7.31
2018-01-24T07:16:26.767Z,7.24
2018-01-24T07:17:26.975Z,7.32
2018-01-24T07:18:26.741Z,7.29
2018-01-24T07:19:27.014Z,7.31
2018-01-24T07:20:26.773Z,7.32
2018-01-24T07:21:26.790Z,7.29
2018-01-24T07:22:26.795Z,7.32
2018-01-24T07:23:27.114Z,7.17
2018-01-24T07:24:26.834Z,7.23
2018-01-24T07:25:26.849Z,7.35
2018-01-24T07:26:26.864Z,7.28
2018-01-24T07:27:26.625Z,7.24
2018-01-24T07:28:27.221Z,7.11
2018-01-24T07:29:26.905Z,7.06
2018-01-24T07:30:26.923Z,7.1
2018-01-24T07:31:26.942Z,6.97
2018-01-24T07:32:27.205Z,7.07
2018-01-24T07:33:27.225Z,7.1
2018-01-24T07:34:27.241Z,7.07
2018-01-24T07:35:27.252Z,7.1
2018-01-24T07:36:27.270Z,7.11
2018-01-24T07:37:27.281Z,7.07
2018-01-24T07:38:27.297Z,7.11
2018-01-24T07:39:27.063Z,7.2
2018-01-24T07:40:27.071Z,7.25
2018-01-24T07:41:27.365Z,7.14
2018-01-24T07:42:27.105Z,7.07
2018-01-24T07:43:27.139Z,7.18
2018-01-24T07:44:27.133Z,7.11
2018-01-24T07:45:26.898Z,7.23
2018-01-24T07:46:27.185Z,7.24
2018-01-24T07:47:27.179Z,7.31
2018-01-24T07:48:27.195Z,7.32
2018-01-24T07:49:26.964Z,7.39
2018-01-24T07:50:27.230Z,7.38
2018-01-24T07:51:26.992Z,7.28
2018-01-24T07:52:27.255Z,7.38
2018-01-24T07:53:27.269Z,7.39
2018-01-24T07:54:27.535Z,7.47
2018-01-24T07:55:27.557Z,7.29
2018-01-24T07:56:27.568Z,7.38
2018-01-24T07:57:27.597Z,7.43
2018-01-24T07:58:27.596Z,7.45
2018-01-24T07:59:27.613Z,7.32
2018-01-24T08:00:27.127Z,7.21
2018-01-24T08:01:27.411Z,7.33
2018-01-24T08:02:27.410Z,7.39
2018-01-24T08:03:27.682Z,7.43
2018-01-24T08:04:27.691Z,7.57
2018-01-24T08:05:27.205Z,7.6
2018-01-24T08:06:27.474Z,7.69
2018-01-24T08:07:27.494Z,7.73
2018-01-24T08:08:27.511Z,7.91
2018-01-24T08:09:27.264Z,7.88
2018-01-24T08:10:27.282Z,7.9
2018-01-24T08:11:27.553Z,7.82
2018-01-24T08:12:27.817Z,7.85
2018-01-24T08:13:27.583Z,7.98
2018-01-24T08:14:27.345Z,7.94
2018-01-24T08:15:27.622Z,7.9
2018-01-24T08:17:27.909Z,7.98
2018-01-24T08:18:27.659Z,8.03
2018-01-24T08:19:27.676Z,8.18
2018-01-24T08:20:27.943Z,8.15
2018-01-24T08:21:27.707Z,8.12
2018-01-24T08:22:27.472Z,8.13
2018-01-24T08:23:27.762Z,8.12
2018-01-24T08:24:27.501Z,8.28
2018-01-24T08:25:27.768Z,8.28
2018-01-24T08:26:27.783Z,8.2
2018-01-24T08:27:27.801Z,8.36
2018-01-24T08:28:27.820Z,8.27
2018-01-24T08:29:27.579Z,8.36
2018-01-24T08:30:27.649Z,8.49
2018-01-24T08:31:27.612Z,8.48
2018-01-24T08:32:27.878Z,8.69
2018-01-24T08:33:27.893Z,8.56
2018-01-24T08:34:27.660Z,8.71
2018-01-24T08:35:27.946Z,8.7
2018-01-24T08:36:27.943Z,8.67
2018-01-24T08:37:27.965Z,8.66
2018-01-24T08:38:27.979Z,8.79
2018-01-24T08:39:27.743Z,8.79
2018-01-24T08:40:28.263Z,8.79
2018-01-24T08:41:28.027Z,8.82
2018-01-24T08:42:28.304Z,8.94
2018-01-24T08:43:28.064Z,8.94
2018-01-24T08:44:28.084Z,8.88
2018-01-24T08:45:27.841Z,8.94
2018-01-24T08:46:28.108Z,9.04
2018-01-24T08:47:28.387Z,9.04
2018-01-24T08:48:28.444Z,9.03
2018-01-24T08:49:27.909Z,9.13
2018-01-24T08:50:28.175Z,9.22
2018-01-24T08:51:28.192Z,9.23
2018-01-24T08:52:28.207Z,9.32
2018-01-24T08:53:28.222Z,9.37
2018-01-24T08:54:28.498Z,9.37
2018-01-24T08:55:28.509Z,9.4
2018-01-24T08:56:28.282Z,9.39
2018-01-24T08:57:28.291Z,9.4
2018-01-24T08:58:28.308Z,9.58
2018-01-24T08:59:28.325Z,9.8
2018-01-24T09:00:28.593Z,9.82
2018-01-24T09:01:28.106Z,9.99
2018-01-24T09:02:28.630Z,10.07
2018-01-24T09:03:28.638Z,10.19
2018-01-24T09:04:28.409Z,10.23
2018-01-24T09:05:28.679Z,10.28
2018-01-24T09:06:28.702Z,10.42
2018-01-24T09:07:28.710Z,10.41
2018-01-24T09:08:28.729Z,10.48
2018-01-24T09:09:28.496Z,10.48
2018-01-24T09:10:28.521Z,10.4
2018-01-24T09:11:28.790Z,10.41
2018-01-24T09:12:28.301Z,10.48
2018-01-24T09:13:28.569Z,10.31
2018-01-24T09:14:28.331Z,10.51
2018-01-24T09:15:28.603Z,10.51
2018-01-24T09:16:28.897Z,10.48
2018-01-24T09:17:28.887Z,10.61
2018-01-24T09:18:28.915Z,10.49
2018-01-24T09:19:28.669Z,10.42
2018-01-24T09:20:28.938Z,10.4
2018-01-24T09:21:28.702Z,10.35
2018-01-24T09:22:28.469Z,10.37
2018-01-24T09:23:28.487Z,10.42
2018-01-24T09:24:28.760Z,10.44
2018-01-24T09:25:29.031Z,10.49
2018-01-24T09:26:28.552Z,10.54
2018-01-24T09:27:28.810Z,10.59
2018-01-24T09:28:29.087Z,10.46
2018-01-24T09:29:28.595Z,10.61
2018-01-24T09:30:29.119Z,10.76
2018-01-24T09:31:29.139Z,10.84
2018-01-24T09:32:28.901Z,10.86
2018-01-24T09:33:28.916Z,10.96
2018-01-24T09:34:28.935Z,11.07
2018-01-24T09:35:28.737Z,11.11
2018-01-24T09:36:28.989Z,11.3
2018-01-24T09:37:28.987Z,11.41
2018-01-24T09:38:29.002Z,11.45
2018-01-24T09:39:29.019Z,11.27
2018-01-24T09:40:29.294Z,11.32
2018-01-24T09:41:28.810Z,11.51
2018-01-24T09:42:29.079Z,11.48
2018-01-24T09:43:29.091Z,11.45
2018-01-24T09:44:29.360Z,11.23
2018-01-24T09:45:29.387Z,11.3
2018-01-24T09:46:29.408Z,11.23
2018-01-24T09:47:29.415Z,11.41
2018-01-24T09:48:29.437Z,11.57
2018-01-24T09:49:29.455Z,11.75
2018-01-24T09:50:29.477Z,11.94
2018-01-24T09:51:29.498Z,11.91
2018-01-24T09:52:29.512Z,12.1
2018-01-24T09:53:29.275Z,12.13
2018-01-24T09:54:29.296Z,12.07
2018-01-24T09:55:29.062Z,12.07
2018-01-24T09:56:29.336Z,12.25
2018-01-24T09:57:29.365Z,12.18
2018-01-24T09:58:29.374Z,12.4
2018-01-24T09:59:29.394Z,12.37
2018-01-24T10:00:29.660Z,12.37
2018-01-24T10:01:29.427Z,12.54
2018-01-24T10:02:29.700Z,12.6
2018-01-24T10:03:29.466Z,12.57
2018-01-24T10:04:29.483Z,12.75
2018-01-24T10:05:29.762Z,12.65
2018-01-24T10:06:29.525Z,12.62
2018-01-24T10:07:29.540Z,12.72
2018-01-24T10:08:29.557Z,12.82
2018-01-24T10:09:29.830Z,12.9
2018-01-24T10:10:29.849Z,13.04
2018-01-24T10:11:29.630Z,13.05
2018-01-24T10:12:29.890Z,13.3
2018-01-24T10:13:29.667Z,13.33
2018-01-24T10:14:29.421Z,13.44
2018-01-24T10:15:29.696Z,13.74
2018-01-24T10:16:29.980Z,13.81
2018-01-24T10:17:29.736Z,14.22
2018-01-24T10:18:29.760Z,14.32
2018-01-24T10:19:29.793Z,14.55
2018-01-24T10:20:29.549Z,14.81
2018-01-24T10:21:30.097Z,14.92
2018-01-24T10:22:29.850Z,15.18
2018-01-24T10:23:29.869Z,15.36
2018-01-24T10:24:29.892Z,15.54
2018-01-24T10:25:30.170Z,15.75
2018-01-24T10:26:29.713Z,15.97
2018-01-24T10:27:29.963Z,16.43
2018-01-24T10:28:29.993Z,16.6
2018-01-24T10:29:30.018Z,16.6
2018-01-24T10:30:30.295Z,16.89
2018-01-24T10:31:30.066Z,17.2
2018-01-24T10:32:30.343Z,17.39
2018-01-24T10:33:30.374Z,17.49
2018-01-24T10:34:30.149Z,17.7
2018-01-24T10:35:30.172Z,17.78
2018-01-24T10:36:30.198Z,17.97
2018-01-24T10:37:30.236Z,17.85
2018-01-24T10:38:30.257Z,18.26
2018-01-24T10:39:30.035Z,18.44
2018-01-24T10:40:30.563Z,18.78
2018-01-24T10:41:30.337Z,19.02
2018-01-24T10:42:30.121Z,19.36
2018-01-24T10:43:30.644Z,19.56
2018-01-24T10:44:30.424Z,19.85
2018-01-24T10:45:30.455Z,20.24
2018-01-24T10:46:30.726Z,20.37
2018-01-24T10:47:30.253Z,20.34
2018-01-24T10:48:30.786Z,20.58
2018-01-24T10:49:30.563Z,20.72
2018-01-24T10:50:30.595Z,21
2018-01-24T10:51:30.372Z,20.93
2018-01-24T10:52:30.902Z,21.25
2018-01-24T10:53:30.987Z,21.15
2018-01-24T10:54:30.713Z,21.03
2018-01-24T10:55:30.993Z,21.29
2018-01-24T10:56:30.767Z,21.35
2018-01-24T10:57:31.055Z,21.54
2018-01-24T10:58:30.839Z,21.46
2018-01-24T10:59:31.114Z,21.58
2018-01-24T11:00:31.205Z,21.7
2018-01-24T11:01:30.940Z,22.02
2018-01-24T11:02:31.198Z,22.23
2018-01-24T11:03:31.234Z,22.38
2018-01-24T11:04:31.265Z,22.43
2018-01-24T11:05:31.298Z,22.13
2018-01-24T11:06:31.330Z,21.93
2018-01-24T11:07:31.176Z,21.99
2018-01-24T11:08:30.900Z,22.25
2018-01-24T11:09:31.168Z,22.41
2018-01-24T11:10:31.448Z,22.68
2018-01-24T11:11:30.981Z,22.68
2018-01-24T11:12:31.263Z,22.69
2018-01-24T11:13:31.289Z,22.8
2018-01-24T11:14:31.593Z,22.98
2018-01-24T11:15:31.101Z,22.99
2018-01-24T11:16:31.393Z,22.94
2018-01-24T11:17:31.688Z,22.94
2018-01-24T11:18:31.453Z,22.73
2018-01-24T11:19:31.730Z,22.8
2018-01-24T11:20:31.788Z,23.05
2018-01-24T11:21:31.545Z,23.28
2018-01-24T11:22:31.327Z,23.48
2018-01-24T11:23:31.608Z,23.71
2018-01-24T11:24:31.642Z,23.88
2018-01-24T11:25:31.674Z,23.78
2018-01-24T11:26:31.705Z,23.81
2018-01-24T11:27:31.994Z,23.69
2018-01-24T11:28:31.517Z,23.61
2018-01-24T11:29:32.057Z,23.77
2018-01-24T11:30:31.892Z,23.99
2018-01-24T11:31:31.873Z,24.16
2018-01-24T11:32:32.154Z,24.24
2018-01-24T11:33:31.680Z,24.29
2018-01-24T11:34:32.220Z,24.57
2018-01-24T11:35:32.015Z,25.04
2018-01-24T11:36:32.284Z,24.96
2018-01-24T11:37:32.319Z,25.11
2018-01-24T11:38:32.094Z,25.26
2018-01-24T11:39:32.244Z,25.33
2018-01-24T11:40:31.909Z,25.38
2018-01-24T11:41:32.194Z,25.38
2018-01-24T11:42:32.493Z,25.54
2018-01-24T11:43:32.513Z,25.9
2018-01-24T11:44:32.548Z,25.68
2018-01-24T11:45:32.780Z,25.95
2018-01-24T11:46:32.109Z,26.22
2018-01-24T11:47:32.404Z,26.6
2018-01-24T11:48:32.201Z,26.13
2018-01-24T11:49:32.744Z,26.38
2018-01-24T11:50:32.497Z,26.34
2018-01-24T11:51:32.280Z,25.7
2018-01-24T11:52:32.562Z,26.25
2018-01-24T11:53:32.596Z,26.85
2018-01-24T11:54:32.882Z,26.9
2018-01-24T11:55:32.666Z,26.93
2018-01-24T11:56:32.699Z,27.26
2018-01-24T11:57:32.986Z,27.58
2018-01-24T11:58:32.770Z,27.85
2018-01-24T11:59:33.135Z,28.11
2018-01-24T12:00:32.841Z,28.14
2018-01-24T12:01:32.621Z,28.37
2018-01-24T12:02:32.907Z,28.57
2018-01-24T12:03:32.692Z,28.89
2018-01-24T12:04:33.228Z,29.16
2018-01-24T12:05:33.007Z,29.14
2018-01-24T12:06:33.042Z,29.02
2018-01-24T12:07:33.325Z,28.94
2018-01-24T12:08:33.128Z,28.56
2018-01-24T12:09:33.403Z,28.39
2018-01-24T12:10:33.181Z,28.27
2018-01-24T12:11:33.219Z,28.64
2018-01-24T12:12:33.001Z,28.85
2018-01-24T12:13:33.034Z,29.04
2018-01-24T12:14:33.323Z,28.98
2018-01-24T12:15:33.355Z,28.91
2018-01-24T12:16:33.645Z,28.82
2018-01-24T12:17:33.426Z,28.76
2018-01-24T12:18:33.712Z,28.49
2018-01-24T12:19:33.747Z,29.01
2018-01-24T12:20:33.274Z,29.34
2018-01-24T12:21:33.818Z,29.38
2018-01-24T12:22:33.851Z,29.47
2018-01-24T12:23:33.635Z,29.61
2018-01-24T12:24:33.420Z,29.76
2018-01-24T12:25:33.953Z,29.57
2018-01-24T12:26:33.996Z,29.36
2018-01-24T12:27:34.032Z,29.47
2018-01-24T12:28:33.555Z,29.72
2018-01-24T12:29:34.095Z,29.94
2018-01-24T12:30:34.143Z,30.19
2018-01-24T12:31:34.166Z,29.82
2018-01-24T12:32:34.198Z,30.06
2018-01-24T12:33:34.312Z,30.43
2018-01-24T12:34:34.024Z,30.94
2018-01-24T12:35:34.050Z,31.28
2018-01-24T12:36:34.339Z,31.05
2018-01-24T12:37:34.122Z,30.84
2018-01-24T12:38:34.463Z,30.53
2018-01-24T12:39:34.445Z,30.43
2018-01-24T12:40:34.228Z,30.63
2018-01-24T12:41:34.013Z,30.54
2018-01-24T12:42:34.310Z,30.25
2018-01-24T12:43:34.593Z,30.27
2018-01-24T12:44:34.370Z,30.15
2018-01-24T12:45:34.683Z,30.23
2018-01-24T12:46:34.468Z,30.18
2018-01-24T12:47:34.238Z,30.13
2018-01-24T12:48:34.764Z,29.94
2018-01-24T12:49:34.546Z,30
2018-01-24T12:50:34.581Z,30.37
2018-01-24T12:51:34.868Z,30.47
2018-01-24T12:52:34.654Z,30.34
2018-01-24T12:53:34.684Z,30.84
2018-01-24T12:54:34.722Z,31.09
2018-01-24T12:55:35.007Z,30.61
2018-01-24T12:56:34.858Z,30.81
2018-01-24T12:57:34.583Z,30.75
2018-01-24T12:58:34.860Z,30.63
2018-01-24T12:59:35.145Z,30.72
2018-01-24T13:00:34.674Z,30.9
2018-01-24T13:01:34.962Z,30.65
2018-01-24T13:02:35.270Z,30.72
2018-01-24T13:03:35.031Z,31.12
2018-01-24T13:04:35.318Z,31.31
2018-01-24T13:05:34.851Z,30.85
2018-01-24T13:06:35.190Z,30.73
2018-01-24T13:07:35.429Z,30.84
2018-01-24T13:08:34.950Z,30.68
2018-01-24T13:09:35.241Z,30.63
2018-01-24T13:10:35.274Z,30.55
2018-01-24T13:11:35.309Z,30.63
2018-01-24T13:12:35.594Z,30.9
2018-01-24T13:13:35.379Z,30.75
2018-01-24T13:14:35.410Z,30.91